Time;durP1;ratioP1;P1;durP2;ratioP2;P2;SDS_P1;SDS_P2;PMS_P1;PMS_P2;Temp;Humidity;BMP_temperature;BMP_pressure;BME280_temperature;BME280_humidity;BME280_pressure;Samples;Min_cycle;Max_cycle;Signal;HPM_P1;HPM_P2
2021/11/15 00:00:39;;;;;;;7.55;6.32;;;14.20;96.70;;;;;;4984077;28;20443;-76
2021/11/15 00:03:09;;;;;;;9.15;7.22;;;14.30;96.70;;;;;;4998784;28;20168;-76
2021/11/15 00:05:38;;;;;;;9.35;6.57;;;14.30;96.70;;;;;;5003149;28;20044;-76
2021/11/15 00:08:06;;;;;;;10.35;6.22;;;14.30;96.70;;;;;;5000347;28;20713;-75
2021/11/15 00:10:34;;;;;;;8.15;7.00;;;14.30;96.70;;;;;;5001321;28;20129;-75
2021/11/15 00:13:03;;;;;;;8.10;6.85;;;14.30;96.70;;;;;;4999470;28;20475;-75
2021/11/15 00:15:33;;;;;;;8.63;7.18;;;14.30;96.70;;;;;;5002089;28;20054;-75
2021/11/15 00:18:01;;;;;;;8.95;7.18;;;14.30;96.70;;;;;;4999645;28;20042;-76
2021/11/15 00:20:31;;;;;;;8.00;6.75;;;14.30;96.70;;;;;;4999477;28;20137;-75
2021/11/15 00:22:59;;;;;;;8.15;6.47;;;14.30;96.70;;;;;;4985009;28;20100;-76
2021/11/15 00:25:27;;;;;;;7.97;7.18;;;14.30;96.70;;;;;;5016914;28;20469;-75
2021/11/15 00:27:56;;;;;;;8.45;7.47;;;14.30;96.70;;;;;;5000167;28;20459;-75
2021/11/15 00:30:24;;;;;;;9.10;6.90;;;14.30;96.70;;;;;;4998406;28;20038;-75
2021/11/15 00:32:53;;;;;;;8.57;6.63;;;14.30;96.70;;;;;;4999796;28;20040;-75
2021/11/15 00:35:21;;;;;;;8.23;6.78;;;14.30;96.70;;;;;;5000378;28;21863;-75
2021/11/15 00:37:51;;;;;;;8.00;6.07;;;14.20;96.70;;;;;;5014570;28;20630;-75
2021/11/15 00:40:20;;;;;;;8.77;6.57;;;14.20;96.70;;;;;;4997878;28;20100;-75
2021/11/15 00:42:48;;;;;;;6.85;6.07;;;14.20;96.70;;;;;;5000335;28;20638;-75
2021/11/15 00:45:17;;;;;;;7.95;6.13;;;14.20;96.70;;;;;;4998261;28;20199;-75
2021/11/15 00:47:46;;;;;;;7.15;5.57;;;14.20;96.70;;;;;;4999515;28;20042;-75
2021/11/15 00:50:17;;;;;;;6.65;5.93;;;14.20;96.70;;;;;;4999753;28;20148;-75
2021/11/15 00:52:46;;;;;;;8.10;5.72;;;14.20;96.70;;;;;;4996698;28;20042;-76
2021/11/15 00:55:17;;;;;;;6.80;5.88;;;14.20;96.70;;;;;;4999253;28;20048;-75
2021/11/15 00:57:46;;;;;;;5.68;5.03;;;14.10;96.70;;;;;;4998643;28;20053;-75
2021/11/15 01:00:19;;;;;;;6.30;5.05;;;14.10;96.70;;;;;;4999404;28;20181;-75
2021/11/15 01:02:48;;;;;;;8.43;5.50;;;14.00;96.70;;;;;;5012221;28;20053;-75
2021/11/15 01:05:17;;;;;;;7.93;5.30;;;14.10;96.70;;;;;;4985192;28;20794;-75
2021/11/15 01:07:46;;;;;;;8.65;5.38;;;14.10;96.70;;;;;;4998749;28;20587;-75
2021/11/15 01:10:18;;;;;;;5.68;5.07;;;14.20;96.70;;;;;;5000299;28;20033;-75
2021/11/15 01:12:47;;;;;;;9.13;5.40;;;14.20;96.70;;;;;;5000171;28;20053;-76
2021/11/15 01:15:18;;;;;;;5.85;4.90;;;14.10;96.70;;;;;;4997916;28;20049;-75
2021/11/15 01:17:47;;;;;;;5.95;4.82;;;14.10;96.70;;;;;;5000054;28;20053;-75
2021/11/15 01:20:18;;;;;;;6.30;5.63;;;14.20;96.70;;;;;;4979542;28;20042;-75
2021/11/15 01:22:47;;;;;;;8.55;4.93;;;14.20;96.70;;;;;;4984448;28;20152;-75
2021/11/15 01:25:17;;;;;;;6.88;5.50;;;14.10;96.70;;;;;;4999595;28;20050;-75
2021/11/15 01:27:45;;;;;;;6.40;5.28;;;14.00;96.70;;;;;;4998099;28;20053;-76
2021/11/15 01:30:16;;;;;;;7.03;5.25;;;14.10;96.70;;;;;;4997868;28;20042;-76
2021/11/15 01:32:44;;;;;;;5.30;4.80;;;14.10;96.70;;;;;;4982414;28;20302;-75
2021/11/15 01:35:13;;;;;;;6.10;5.28;;;14.10;96.70;;;;;;4998036;28;20393;-75
2021/11/15 01:37:48;;;;;;;7.07;4.90;;;14.20;96.70;;;;;;4997236;28;20288;-75
2021/11/15 01:40:20;;;;;;;7.47;5.25;;;14.20;96.70;;;;;;5014840;28;20064;-76
2021/11/15 01:42:49;;;;;;;5.68;5.07;;;14.20;96.70;;;;;;4998877;28;20058;-75
2021/11/15 01:45:23;;;;;;;5.40;4.90;;;14.20;96.70;;;;;;4999077;28;20073;-75
2021/11/15 01:47:53;;;;;;;5.57;4.90;;;14.20;96.70;;;;;;4997095;28;20053;-76
2021/11/15 01:50:22;;;;;;;6.20;5.30;;;14.20;96.70;;;;;;4999771;28;20038;-75
2021/11/15 01:52:51;;;;;;;5.63;5.05;;;14.20;96.70;;;;;;4998348;28;20274;-75
2021/11/15 01:55:22;;;;;;;7.47;5.32;;;14.20;96.70;;;;;;5001163;28;20065;-75
2021/11/15 01:57:52;;;;;;;9.80;5.88;;;14.10;96.70;;;;;;4997284;28;20277;-75
2021/11/15 02:00:23;;;;;;;6.80;5.30;;;14.10;96.70;;;;;;5000078;28;20042;-76
2021/11/15 02:02:51;;;;;;;5.82;4.85;;;14.00;96.70;;;;;;4982898;28;20042;-75
2021/11/15 02:05:20;;;;;;;6.95;5.32;;;14.00;96.70;;;;;;5000574;28;20042;-75
2021/11/15 02:07:48;;;;;;;6.45;5.30;;;14.00;96.70;;;;;;5000582;28;20050;-75
2021/11/15 02:10:18;;;;;;;7.53;5.30;;;14.00;96.70;;;;;;4982874;28;20412;-75
2021/11/15 02:12:48;;;;;;;6.50;5.53;;;14.00;96.70;;;;;;4998931;28;20049;-75
2021/11/15 02:15:16;;;;;;;7.25;5.72;;;14.00;96.70;;;;;;5001399;28;20119;-76
2021/11/15 02:17:47;;;;;;;7.10;5.40;;;14.10;96.70;;;;;;4999597;28;20076;-75
2021/11/15 02:20:18;;;;;;;5.97;5.25;;;14.00;96.70;;;;;;4978741;28;20408;-75
2021/11/15 02:22:47;;;;;;;5.78;5.10;;;14.10;96.70;;;;;;4997137;28;20030;-75
2021/11/15 02:25:17;;;;;;;7.53;5.82;;;14.10;96.70;;;;;;5000518;28;20038;-76
2021/11/15 02:27:46;;;;;;;6.57;5.63;;;14.20;96.70;;;;;;4999857;28;20068;-76
2021/11/15 02:30:18;;;;;;;7.10;6.28;;;14.10;96.70;;;;;;4996240;28;20100;-75
2021/11/15 02:32:48;;;;;;;8.80;5.85;;;14.10;96.70;;;;;;4984496;28;20073;-77
2021/11/15 02:35:19;;;;;;;8.65;5.97;;;14.10;96.70;;;;;;5014750;28;20045;-77
2021/11/15 02:37:47;;;;;;;7.82;6.22;;;14.10;96.70;;;;;;4979678;28;20322;-78
2021/11/15 02:40:20;;;;;;;7.82;6.20;;;14.10;96.70;;;;;;4981275;28;20054;-76
2021/11/15 02:42:49;;;;;;;8.93;5.70;;;14.20;96.70;;;;;;4996311;28;20046;-77
2021/11/15 02:45:21;;;;;;;6.93;5.35;;;14.10;96.70;;;;;;4999139;28;20034;-75
2021/11/15 02:47:50;;;;;;;6.85;5.93;;;14.20;96.70;;;;;;4998818;28;20038;-75
2021/11/15 02:50:22;;;;;;;6.65;5.30;;;14.20;96.70;;;;;;4995248;28;20112;-76
2021/11/15 02:52:52;;;;;;;6.65;5.78;;;14.10;96.70;;;;;;4997311;28;20044;-75
2021/11/15 02:55:21;;;;;;;5.97;5.35;;;14.20;96.70;;;;;;4997562;28;20161;-75
2021/11/15 02:57:51;;;;;;;6.55;5.63;;;14.20;96.70;;;;;;5000738;28;20060;-75
2021/11/15 03:00:25;;;;;;;7.47;5.88;;;14.20;96.70;;;;;;4996995;28;20034;-74
2021/11/15 03:02:54;;;;;;;6.20;5.20;;;14.20;96.70;;;;;;4997741;28;20107;-75
2021/11/15 03:05:27;;;;;;;8.98;5.95;;;14.10;96.70;;;;;;4999889;28;20125;-75
2021/11/15 03:07:56;;;;;;;7.80;6.05;;;14.10;96.70;;;;;;5001612;28;20065;-74
2021/11/15 03:10:26;;;;;;;5.95;5.28;;;14.10;96.70;;;;;;5000966;28;20034;-74
2021/11/15 03:12:56;;;;;;;6.78;5.90;;;14.10;96.70;;;;;;4999572;28;20041;-74
2021/11/15 03:15:27;;;;;;;6.93;5.97;;;14.10;96.70;;;;;;4986127;28;20396;-75
2021/11/15 03:17:57;;;;;;;7.40;5.65;;;14.00;96.70;;;;;;5005799;28;20128;-75
2021/11/15 03:20:29;;;;;;;7.53;5.85;;;14.00;96.70;;;;;;5002998;28;20049;-74
2021/11/15 03:22:58;;;;;;;6.22;5.63;;;14.00;96.70;;;;;;4986126;28;20160;-75
2021/11/15 03:25:28;;;;;;;8.50;5.88;;;14.00;96.70;;;;;;4985934;28;20373;-75
2021/11/15 03:27:57;;;;;;;6.38;5.72;;;13.90;96.70;;;;;;5001383;28;20049;-75
2021/11/15 03:30:26;;;;;;;7.97;6.03;;;14.00;96.70;;;;;;4985337;28;20042;-75
2021/11/15 03:32:55;;;;;;;9.15;5.50;;;14.00;96.70;;;;;;5000431;28;20049;-76
2021/11/15 03:35:24;;;;;;;7.10;6.35;;;14.00;96.70;;;;;;5002223;28;20041;-75
2021/11/15 03:37:54;;;;;;;8.00;5.95;;;14.00;96.70;;;;;;5000265;28;20046;-75
2021/11/15 03:40:25;;;;;;;7.20;5.88;;;14.00;96.70;;;;;;5000396;28;20048;-75
2021/11/15 03:42:57;;;;;;;8.55;6.07;;;14.00;96.70;;;;;;5000959;28;20246;-75
2021/11/15 03:45:26;;;;;;;6.75;6.05;;;14.00;96.70;;;;;;4983489;28;20050;-76
2021/11/15 03:47:55;;;;;;;8.38;6.10;;;14.00;96.70;;;;;;5014983;28;20160;-75
2021/11/15 03:50:25;;;;;;;6.85;5.65;;;14.00;96.70;;;;;;4984994;28;20058;-76
2021/11/15 03:52:56;;;;;;;6.72;5.78;;;14.00;96.70;;;;;;4999085;28;20113;-75
2021/11/15 03:55:25;;;;;;;8.30;6.07;;;14.00;96.70;;;;;;5001907;28;20124;-76
2021/11/15 03:57:54;;;;;;;6.32;5.53;;;14.00;96.70;;;;;;5014626;28;20132;-75
2021/11/15 04:00:26;;;;;;;7.88;5.68;;;14.00;96.70;;;;;;5001093;28;20038;-75
2021/11/15 04:02:57;;;;;;;7.68;6.05;;;14.00;96.70;;;;;;5014243;28;20045;-75
2021/11/15 04:05:27;;;;;;;8.88;5.57;;;14.00;96.70;;;;;;4998210;28;20082;-76
2021/11/15 04:08:00;;;;;;;6.25;5.13;;;14.00;96.70;;;;;;5000644;28;20156;-75
2021/11/15 04:10:30;;;;;;;8.27;4.85;;;14.00;96.70;;;;;;5001710;28;20054;-75
2021/11/15 04:13:01;;;;;;;5.80;4.70;;;14.00;96.70;;;;;;5000230;28;20081;-75
2021/11/15 04:15:30;;;;;;;7.05;4.80;;;14.00;96.70;;;;;;5002311;28;20041;-76
2021/11/15 04:17:58;;;;;;;5.68;4.50;;;14.10;96.70;;;;;;4998215;28;20439;-75
2021/11/15 04:20:27;;;;;;;6.13;4.57;;;14.00;96.70;;;;;;5001690;28;20042;-75
2021/11/15 04:22:57;;;;;;;6.30;4.63;;;14.10;96.70;;;;;;4984633;28;20570;-76
2021/11/15 04:25:26;;;;;;;5.90;4.72;;;14.10;96.70;;;;;;4998838;28;20046;-75
2021/11/15 04:27:54;;;;;;;5.30;4.60;;;14.10;96.70;;;;;;4998791;28;20149;-75
2021/11/15 04:30:23;;;;;;;4.72;4.15;;;14.10;96.70;;;;;;5001300;28;20046;-75
2021/11/15 04:32:51;;;;;;;4.95;4.32;;;14.10;96.70;;;;;;4997595;28;20046;-76
2021/11/15 04:35:19;;;;;;;5.57;4.00;;;14.10;96.70;;;;;;4998417;28;20064;-75
2021/11/15 04:37:48;;;;;;;4.32;3.92;;;14.10;96.70;;;;;;5002046;28;20038;-75
2021/11/15 04:40:18;;;;;;;3.65;3.15;;;14.10;96.70;;;;;;4998486;28;20096;-75
2021/11/15 04:42:46;;;;;;;4.63;3.55;;;14.10;96.70;;;;;;4981978;28;20164;-76
2021/11/15 04:45:14;;;;;;;4.82;3.38;;;14.10;96.70;;;;;;4982867;28;20045;-75
2021/11/15 04:47:43;;;;;;;5.30;3.67;;;14.20;96.70;;;;;;5015839;28;20060;-75
2021/11/15 04:50:12;;;;;;;4.70;3.53;;;14.20;96.70;;;;;;4999491;28;20041;-75
2021/11/15 04:52:40;;;;;;;3.92;3.15;;;14.20;96.70;;;;;;4998911;28;20081;-76
2021/11/15 04:55:12;;;;;;;3.63;3.28;;;14.20;96.70;;;;;;5012985;28;20626;-75
2021/11/15 04:57:42;;;;;;;5.57;3.53;;;14.20;96.70;;;;;;5016620;28;20339;-75
2021/11/15 05:00:13;;;;;;;3.40;3.10;;;14.30;96.70;;;;;;4997376;28;20045;-76
2021/11/15 05:02:41;;;;;;;3.65;3.25;;;14.30;96.70;;;;;;5000308;28;20423;-75
2021/11/15 05:05:10;;;;;;;3.97;3.08;;;14.30;96.70;;;;;;4999468;28;20697;-75
2021/11/15 05:07:38;;;;;;;4.40;3.20;;;14.30;96.70;;;;;;5000567;28;20042;-75
2021/11/15 05:10:08;;;;;;;4.75;3.28;;;14.30;96.70;;;;;;4998904;28;20039;-75
2021/11/15 05:12:37;;;;;;;3.33;3.03;;;14.30;96.70;;;;;;4994801;28;20053;-75
2021/11/15 05:15:10;;;;;;;5.63;3.67;;;14.30;96.70;;;;;;4999536;28;20133;-74
2021/11/15 05:17:39;;;;;;;4.72;3.58;;;14.30;96.70;;;;;;4999437;28;20057;-76
2021/11/15 05:20:09;;;;;;;3.75;3.10;;;14.20;96.70;;;;;;4998037;28;20415;-75
2021/11/15 05:22:38;;;;;;;5.72;3.80;;;14.20;96.70;;;;;;5002367;28;20046;-75
2021/11/15 05:25:07;;;;;;;3.65;3.28;;;14.20;96.70;;;;;;4999289;28;20117;-76
2021/11/15 05:27:37;;;;;;;4.88;3.88;;;14.30;96.70;;;;;;4999279;28;20053;-75
2021/11/15 05:30:09;;;;;;;5.28;3.85;;;14.30;96.70;;;;;;4997630;28;20048;-75
2021/11/15 05:32:38;;;;;;;5.75;3.83;;;14.30;96.70;;;;;;5000610;28;20056;-76
2021/11/15 05:35:07;;;;;;;6.18;3.65;;;14.20;96.70;;;;;;5014530;28;20496;-75
2021/11/15 05:37:36;;;;;;;4.57;3.22;;;14.30;96.70;;;;;;4998432;28;20052;-75
2021/11/15 05:40:06;;;;;;;4.35;3.35;;;14.30;96.70;;;;;;4995967;28;20511;-75
2021/11/15 05:42:35;;;;;;;4.07;3.47;;;14.30;96.70;;;;;;5000068;28;20077;-75
2021/11/15 05:45:07;;;;;;;4.65;3.80;;;14.20;96.70;;;;;;4998051;28;20595;-75
2021/11/15 05:47:35;;;;;;;4.68;3.65;;;14.20;96.70;;;;;;4999295;28;20045;-76
2021/11/15 05:50:05;;;;;;;3.78;3.38;;;14.20;96.70;;;;;;4998903;28;20586;-75
2021/11/15 05:52:40;;;;;;;3.83;3.40;;;14.20;96.70;;;;;;4996530;28;20060;-76
2021/11/15 05:55:11;;;;;;;4.75;3.78;;;14.20;96.70;;;;;;5016045;28;20046;-75
2021/11/15 05:57:40;;;;;;;4.78;3.70;;;14.20;96.70;;;;;;4996776;28;20141;-75
2021/11/15 06:00:14;;;;;;;4.47;3.50;;;14.20;96.70;;;;;;4998770;28;20065;-75
2021/11/15 06:02:42;;;;;;;4.68;3.50;;;14.20;96.70;;;;;;4998752;28;20042;-75
2021/11/15 06:05:11;;;;;;;4.63;3.40;;;14.20;96.70;;;;;;4999355;28;20545;-75
2021/11/15 06:07:41;;;;;;;5.25;3.80;;;14.20;96.70;;;;;;4998909;28;20045;-75
2021/11/15 06:10:10;;;;;;;5.63;3.45;;;14.10;96.70;;;;;;4997784;28;20053;-75
2021/11/15 06:12:38;;;;;;;6.38;4.18;;;14.10;96.70;;;;;;4998231;28;20046;-75
2021/11/15 06:15:11;;;;;;;4.75;3.60;;;14.20;96.70;;;;;;4982561;28;20137;-75
2021/11/15 06:17:42;;;;;;;4.30;3.40;;;14.10;96.70;;;;;;4998888;28;20464;-75
2021/11/15 06:20:13;;;;;;;4.57;3.25;;;14.10;96.70;;;;;;4997250;28;20033;-75
2021/11/15 06:22:42;;;;;;;7.22;4.00;;;14.10;96.70;;;;;;5013463;28;20062;-75
2021/11/15 06:25:12;;;;;;;4.78;3.67;;;14.10;96.70;;;;;;4983345;28;20041;-76
2021/11/15 06:27:40;;;;;;;6.13;3.80;;;14.10;96.70;;;;;;4997158;28;20563;-76
2021/11/15 06:30:13;;;;;;;4.90;3.72;;;14.10;96.70;;;;;;5000618;28;20456;-75
2021/11/15 06:32:42;;;;;;;6.70;4.35;;;14.10;96.70;;;;;;4997012;28;20561;-75
2021/11/15 06:35:11;;;;;;;5.45;4.20;;;14.20;96.70;;;;;;4998938;28;20104;-75
2021/11/15 06:37:42;;;;;;;7.03;4.07;;;14.10;96.70;;;;;;4998019;28;20044;-75
2021/11/15 06:40:12;;;;;;;5.05;4.10;;;14.20;96.70;;;;;;4999945;28;20037;-75
2021/11/15 06:42:41;;;;;;;6.13;4.40;;;14.20;96.70;;;;;;5001983;28;20057;-75
2021/11/15 06:45:11;;;;;;;7.32;4.13;;;14.20;96.70;;;;;;5003127;28;20042;-75
2021/11/15 06:47:42;;;;;;;5.47;4.07;;;14.20;96.70;;;;;;5001819;28;20046;-75
2021/11/15 06:50:12;;;;;;;4.63;4.20;;;14.20;96.70;;;;;;4988395;28;20050;-75
2021/11/15 06:52:41;;;;;;;4.70;3.85;;;14.20;96.70;;;;;;5003814;28;20089;-75
2021/11/15 06:55:11;;;;;;;5.38;4.57;;;14.20;96.70;;;;;;4982019;28;20065;-75
2021/11/15 06:57:40;;;;;;;6.35;4.25;;;14.20;96.70;;;;;;4999077;28;20041;-75
2021/11/15 07:00:16;;;;;;;6.97;3.90;;;14.20;96.70;;;;;;5002631;28;20037;-75
2021/11/15 07:02:48;;;;;;;5.65;4.28;;;14.20;96.70;;;;;;5003639;28;20447;-75
2021/11/15 07:05:17;;;;;;;5.68;4.40;;;14.20;96.70;;;;;;5001100;28;20076;-75
2021/11/15 07:07:46;;;;;;;8.13;5.00;;;14.20;96.70;;;;;;5003743;28;20042;-75
2021/11/15 07:10:15;;;;;;;4.38;3.58;;;14.20;96.70;;;;;;5002749;28;20112;-75
2021/11/15 07:12:46;;;;;;;4.72;3.85;;;14.20;96.70;;;;;;5003792;28;20054;-75
2021/11/15 07:15:17;;;;;;;4.35;3.50;;;14.20;96.70;;;;;;4997329;28;20503;-76
2021/11/15 07:17:46;;;;;;;5.28;4.32;;;14.20;96.70;;;;;;5000660;28;20551;-75
2021/11/15 07:20:15;;;;;;;6.70;4.43;;;14.20;96.70;;;;;;5000746;28;20061;-75
2021/11/15 07:22:46;;;;;;;5.15;4.13;;;14.20;96.70;;;;;;5002581;28;20529;-76
2021/11/15 07:25:16;;;;;;;15.45;4.38;;;14.30;96.70;;;;;;5000253;28;20128;-75
2021/11/15 07:27:45;;;;;;;5.00;3.60;;;14.30;96.70;;;;;;5003134;28;20069;-75
2021/11/15 07:30:15;;;;;;;4.53;3.25;;;14.20;96.70;;;;;;4999789;28;20488;-75
2021/11/15 07:32:44;;;;;;;5.22;3.95;;;14.20;96.70;;;;;;5002695;28;20594;-75
2021/11/15 07:35:12;;;;;;;5.90;3.88;;;14.20;96.70;;;;;;5002645;28;20508;-75
2021/11/15 07:37:40;;;;;;;5.50;4.05;;;14.30;96.70;;;;;;5001037;28;20042;-75
2021/11/15 07:40:11;;;;;;;7.25;4.07;;;14.20;96.70;;;;;;5000423;28;20064;-75
2021/11/15 07:42:39;;;;;;;4.80;4.13;;;14.30;96.70;;;;;;5002527;28;20062;-75
2021/11/15 07:45:09;;;;;;;6.03;3.97;;;14.30;96.70;;;;;;5000385;28;20050;-75
2021/11/15 07:47:40;;;;;;;5.88;5.10;;;14.20;96.70;;;;;;5002568;28;20508;-75
2021/11/15 07:50:11;;;;;;;5.88;4.43;;;14.30;96.70;;;;;;5000216;28;20544;-76
2021/11/15 07:52:40;;;;;;;5.45;4.35;;;14.30;96.70;;;;;;5015644;28;20050;-75
2021/11/15 07:55:11;;;;;;;5.47;3.80;;;14.30;96.70;;;;;;4999580;28;20034;-76
2021/11/15 07:57:41;;;;;;;6.95;4.20;;;14.30;96.70;;;;;;5000343;28;20054;-75
2021/11/15 08:00:11;;;;;;;5.57;3.80;;;14.30;96.70;;;;;;5001705;28;20049;-75
2021/11/15 08:02:42;;;;;;;7.03;3.95;;;14.40;96.70;;;;;;5000131;28;20046;-76
2021/11/15 08:05:13;;;;;;;4.43;4.03;;;14.40;96.70;;;;;;5000644;28;20057;-75
2021/11/15 08:07:41;;;;;;;6.15;3.65;;;14.40;96.70;;;;;;4984449;28;20058;-76
2021/11/15 08:10:12;;;;;;;5.15;3.65;;;14.40;96.70;;;;;;5001462;28;20130;-75
2021/11/15 08:12:42;;;;;;;4.57;3.55;;;14.40;96.70;;;;;;4998706;28;20038;-76
2021/11/15 08:15:12;;;;;;;6.55;3.60;;;14.50;96.70;;;;;;4984871;28;20049;-76
2021/11/15 08:17:45;;;;;;;4.55;3.63;;;14.50;96.70;;;;;;4999715;28;20080;-75
2021/11/15 08:20:16;;;;;;;5.05;3.78;;;14.50;96.70;;;;;;4999529;28;20050;-75
2021/11/15 08:22:49;;;;;;;5.38;3.50;;;14.50;96.70;;;;;;5001312;28;20045;-76
2021/11/15 08:25:55;;;;;;;7.05;3.58;;;14.60;96.70;;;;;;4999993;28;20149;-75
2021/11/15 08:28:25;;;;;;;3.72;3.35;;;14.60;96.70;;;;;;4999847;28;20038;-75
2021/11/15 08:30:54;;;;;;;5.95;3.97;;;14.50;96.70;;;;;;5001701;28;20052;-75
2021/11/15 08:33:24;;;;;;;5.03;4.32;;;14.50;96.70;;;;;;5017516;28;20048;-75
2021/11/15 08:35:52;;;;;;;7.35;4.13;;;14.50;96.70;;;;;;4998910;28;20041;-76
2021/11/15 08:38:40;;;;;;;6.70;3.55;;;14.50;96.70;;;;;;4999504;28;20040;-76
2021/11/15 08:41:09;;;;;;;3.80;3.17;;;14.50;96.70;;;;;;4999157;28;20064;-76
2021/11/15 08:43:38;;;;;;;4.97;3.75;;;14.60;96.70;;;;;;5013799;28;20068;-76
2021/11/15 08:46:08;;;;;;;4.70;3.80;;;14.60;96.70;;;;;;4999726;28;20084;-76
2021/11/15 08:48:38;;;;;;;4.75;3.25;;;14.60;96.70;;;;;;5000780;28;20052;-77
2021/11/15 08:51:10;;;;;;;4.05;3.38;;;14.60;96.70;;;;;;5000186;28;20046;-75
2021/11/15 08:53:41;;;;;;;4.68;3.10;;;14.70;96.70;;;;;;5001096;28;20046;-75
2021/11/15 08:56:10;;;;;;;4.70;3.50;;;14.70;96.70;;;;;;5001391;28;20080;-75
2021/11/15 08:58:38;;;;;;;3.92;3.30;;;14.70;96.70;;;;;;4999087;28;20034;-75
2021/11/15 09:01:07;;;;;;;4.68;3.40;;;14.70;96.70;;;;;;4997544;28;20140;-75
2021/11/15 09:03:39;;;;;;;4.43;3.17;;;14.80;96.70;;;;;;5000821;28;20038;-76
2021/11/15 09:06:07;;;;;;;3.97;3.00;;;14.80;96.70;;;;;;4991086;28;20180;-75
2021/11/15 09:08:35;;;;;;;3.65;2.97;;;14.80;96.70;;;;;;4998300;28;20644;-76
2021/11/15 09:11:04;;;;;;;5.05;3.40;;;14.80;96.70;;;;;;4994819;28;20220;-75
2021/11/15 09:13:32;;;;;;;4.55;3.13;;;14.90;96.70;;;;;;4992369;28;20050;-75
2021/11/15 09:16:00;;;;;;;9.70;3.35;;;14.90;96.70;;;;;;5013508;28;20053;-74
2021/11/15 09:18:28;;;;;;;4.55;3.15;;;15.00;96.70;;;;;;4983182;28;20500;-74
2021/11/15 09:20:58;;;;;;;4.35;3.20;;;15.00;96.70;;;;;;4977783;28;20421;-77
2021/11/15 09:23:26;;;;;;;3.95;3.30;;;15.10;96.70;;;;;;4996319;28;20053;-75
2021/11/15 09:25:55;;;;;;;3.10;2.80;;;15.20;96.70;;;;;;4981479;28;20420;-76
2021/11/15 09:28:22;;;;;;;4.28;3.05;;;15.20;96.70;;;;;;4995089;28;20041;-75
2021/11/15 09:30:51;;;;;;;4.90;3.15;;;15.30;96.70;;;;;;4996565;28;20526;-77
2021/11/15 09:33:19;;;;;;;3.17;2.88;;;15.30;96.70;;;;;;5000099;28;20122;-76
2021/11/15 09:35:50;;;;;;;5.65;3.50;;;15.30;96.70;;;;;;4998503;28;20116;-76
2021/11/15 09:38:22;;;;;;;6.05;3.78;;;15.40;96.70;;;;;;4996989;28;20030;-77
2021/11/15 09:40:57;;;;;;;6.03;3.88;;;15.40;96.70;;;;;;4995795;28;20050;-76
2021/11/15 09:43:35;;;;;;;9.68;4.60;;;15.50;96.70;;;;;;4982302;28;20041;-76
2021/11/15 09:46:06;;;;;;;6.43;4.55;;;15.50;96.70;;;;;;5000240;28;20050;-77
2021/11/15 09:48:36;;;;;;;6.78;4.25;;;15.50;96.70;;;;;;4997879;28;20677;-77
2021/11/15 09:51:05;;;;;;;6.00;3.97;;;15.60;96.70;;;;;;4982290;28;20050;-74
2021/11/15 09:53:35;;;;;;;6.43;4.07;;;15.60;96.70;;;;;;4995343;28;20049;-75
2021/11/15 09:56:06;;;;;;;4.75;3.58;;;15.60;96.70;;;;;;4999230;28;20050;-74
2021/11/15 09:58:34;;;;;;;7.25;3.83;;;15.70;96.70;;;;;;4996793;28;20042;-76
2021/11/15 10:01:02;;;;;;;4.60;3.42;;;15.70;96.70;;;;;;4997595;28;20522;-76
2021/11/15 10:03:31;;;;;;;4.90;3.72;;;15.70;96.70;;;;;;4999387;28;20049;-76
2021/11/15 10:06:00;;;;;;;11.40;3.83;;;15.60;96.70;;;;;;4982706;28;20057;-74
2021/11/15 10:08:43;;;;;;;4.90;3.35;;;15.60;96.70;;;;;;4998139;28;20038;-76
2021/11/15 10:11:11;;;;;;;7.30;4.45;;;15.60;96.70;;;;;;5000982;28;20034;-76
2021/11/15 10:13:40;;;;;;;8.13;3.80;;;15.60;96.70;;;;;;4998933;28;20038;-76
2021/11/15 10:16:11;;;;;;;4.45;4.03;;;15.60;96.70;;;;;;4987269;28;20038;-76
2021/11/15 10:18:43;;;;;;;6.25;4.15;;;15.60;96.70;;;;;;4983397;28;20045;-76
2021/11/15 10:21:16;;;;;;;5.85;4.35;;;15.60;96.70;;;;;;5003853;28;20065;-76
2021/11/15 10:23:49;;;;;;;4.47;3.70;;;15.60;96.70;;;;;;5003164;28;20459;-76
2021/11/15 10:26:23;;;;;;;5.80;4.38;;;15.60;96.70;;;;;;4988427;28;20046;-77
2021/11/15 10:28:54;;;;;;;9.35;7.75;;;15.70;96.70;;;;;;4985881;28;20117;-77
2021/11/15 10:31:39;;;;;;;17.42;12.50;;;15.70;96.70;;;;;;5000851;28;20133;-78
2021/11/15 10:34:10;;;;;;;9.70;6.70;;;15.70;96.70;;;;;;5003404;28;20049;-77
2021/11/15 10:36:59;;;;;;;10.30;8.50;;;15.70;96.70;;;;;;4998015;28;20038;-77
2021/11/15 10:39:37;;;;;;;8.68;6.78;;;15.70;96.70;;;;;;4997546;28;20065;-78
2021/11/15 10:42:10;;;;;;;7.22;5.70;;;15.70;96.70;;;;;;4999331;28;20050;-78
2021/11/15 10:44:48;;;;;;;7.68;5.95;;;15.70;96.70;;;;;;4998747;28;20136;-78
2021/11/15 10:47:18;;;;;;;7.47;5.85;;;15.70;96.70;;;;;;5003432;28;20100;-77
2021/11/15 10:49:47;;;;;;;8.50;5.47;;;15.80;96.70;;;;;;4987128;28;20042;-76
2021/11/15 10:52:18;;;;;;;6.30;5.10;;;15.80;96.70;;;;;;5000412;28;20146;-76
2021/11/15 10:57:25;;;;;;;5.68;4.78;;;15.90;96.70;;;;;;5016101;28;20046;-76
2021/11/15 11:00:25;;;;;;;6.88;4.90;;;16.00;96.70;;;;;;5000062;28;20043;-76
2021/11/15 11:03:01;;;;;;;8.65;5.80;;;16.10;96.70;;;;;;5000622;28;20872;-76
2021/11/15 11:05:30;;;;;;;8.90;5.65;;;16.10;96.70;;;;;;4983106;28;20073;-76
2021/11/15 11:08:20;;;;;;;8.90;5.55;;;16.10;96.70;;;;;;5002409;28;20551;-76
2021/11/15 11:11:03;;;;;;;7.30;5.30;;;16.20;96.70;;;;;;4981204;28;20103;-76
2021/11/15 11:13:49;;;;;;;9.13;5.25;;;16.20;96.70;;;;;;5001597;28;20054;-76
2021/11/15 11:16:18;;;;;;;7.20;5.13;;;16.10;96.70;;;;;;5000312;28;20073;-76
2021/11/15 11:19:03;;;;;;;7.75;4.90;;;16.10;96.70;;;;;;5002020;28;20120;-76
2021/11/15 11:24:19;;;;;;;;;;;16.10;96.70;;;;;;5003542;28;20530;-77
2021/11/15 11:26:54;;;;;;;6.97;4.10;;;16.10;96.70;;;;;;4999672;28;20398;-76
2021/11/15 11:29:25;;;;;;;6.07;4.72;;;16.10;96.70;;;;;;4983946;28;20065;-76
2021/11/15 11:31:57;;;;;;;7.25;5.25;;;16.10;96.70;;;;;;5000371;28;20317;-76
2021/11/15 11:34:25;;;;;;;6.63;4.90;;;16.10;96.70;;;;;;5001745;28;20069;-76
2021/11/15 11:36:53;;;;;;;9.13;5.15;;;16.20;96.70;;;;;;5002982;28;20038;-76
2021/11/15 11:39:23;;;;;;;7.30;4.80;;;16.30;96.70;;;;;;4995525;28;20414;-76
2021/11/15 11:41:56;;;;;;;8.60;5.30;;;16.30;96.70;;;;;;4986419;28;20054;-77
2021/11/15 11:44:26;;;;;;;8.43;5.63;;;16.30;96.70;;;;;;5002936;28;20121;-76
2021/11/15 11:46:55;;;;;;;9.60;5.55;;;16.40;96.70;;;;;;5001101;28;20046;-76
2021/11/15 11:49:25;;;;;;;11.57;7.15;;;16.40;96.70;;;;;;4999758;28;20483;-77
2021/11/15 11:51:57;;;;;;;10.70;7.93;;;16.50;96.70;;;;;;4985423;28;20045;-76
2021/11/15 11:54:28;;;;;;;11.20;7.00;;;16.50;96.70;;;;;;5012327;28;20547;-77
2021/11/15 11:57:08;;;;;;;10.32;6.38;;;16.60;96.70;;;;;;5001469;28;20129;-76
2021/11/15 11:59:38;;;;;;;8.48;5.50;;;16.80;96.70;;;;;;4998966;28;20042;-75
2021/11/15 12:02:08;;;;;;;6.20;5.00;;;16.90;96.70;;;;;;5000071;28;20514;-77
2021/11/15 12:04:48;;;;;;;7.10;5.20;;;17.10;96.70;;;;;;5000920;28;20629;-77
2021/11/15 12:07:32;;;;;;;7.43;5.25;;;17.30;96.70;;;;;;5000772;28;20042;-76
2021/11/15 12:10:03;;;;;;;5.47;4.82;;;17.50;96.70;;;;;;4997353;28;20046;-76
2021/11/15 12:12:57;;;;;;;9.85;5.55;;;17.60;96.70;;;;;;4984148;28;20060;-77
2021/11/15 12:15:31;;;;;;;7.20;5.65;;;17.70;96.70;;;;;;5000454;28;20121;-77
2021/11/15 12:18:09;;;;;;;7.45;5.15;;;17.90;96.70;;;;;;5002261;28;20046;-77
2021/11/15 12:21:10;;;;;;;5.95;4.43;;;18.00;96.70;;;;;;4981950;28;20046;-77
2021/11/15 12:23:40;;;;;;;6.43;4.95;;;18.10;96.70;;;;;;4998871;28;20034;-78
2021/11/15 12:26:11;;;;;;;6.65;4.25;;;18.10;96.70;;;;;;4996783;28;20073;-77
2021/11/15 12:28:42;;;;;;;7.38;4.95;;;18.10;96.70;;;;;;4995536;28;20077;-77
2021/11/15 12:31:12;;;;;;;6.22;5.00;;;18.00;96.70;;;;;;5002247;28;20050;-77
2021/11/15 12:33:42;;;;;;;6.57;4.80;;;18.00;96.70;;;;;;4984992;28;20424;-77
2021/11/15 12:36:17;;;;;;;6.45;4.55;;;18.00;96.70;;;;;;5000700;28;20500;-76
2021/11/15 12:38:47;;;;;;;7.80;4.35;;;18.00;96.70;;;;;;4999605;28;20438;-77
2021/11/15 12:41:48;;;;;;;6.13;4.13;;;18.10;96.70;;;;;;4999469;28;20797;-77
2021/11/15 12:44:38;;;;;;;5.95;4.03;;;18.10;96.70;;;;;;4924432;29;20086;-77
2021/11/15 12:47:14;;;;;;;5.95;4.00;;;18.10;96.70;;;;;;4940552;29;20478;-76
2021/11/15 12:49:44;;;;;;;4.53;3.92;;;18.10;96.70;;;;;;4923303;29;20440;-76
2021/11/15 12:52:34;;;;;;;6.28;4.22;;;18.10;96.70;;;;;;4907877;29;20047;-75
2021/11/15 12:55:09;;;;;;;4.97;3.90;;;18.00;96.70;;;;;;4907567;29;20055;-74
2021/11/15 12:57:44;;;;;;;6.20;4.30;;;18.00;96.70;;;;;;4937311;28;20042;-74
2021/11/15 13:00:17;;;;;;;8.73;4.88;;;18.00;96.70;;;;;;4939968;28;20130;-73
2021/11/15 13:02:56;;;;;;;5.72;3.83;;;17.90;96.70;;;;;;4937367;28;20047;-75
2021/11/15 13:05:28;;;;;;;5.75;3.97;;;17.90;96.70;;;;;;4922314;29;20106;-74
2021/11/15 13:07:58;;;;;;;4.07;3.22;;;17.90;96.70;;;;;;4922509;28;20184;-74
2021/11/15 13:10:27;;;;;;;4.50;3.10;;;17.80;96.70;;;;;;4938616;29;20043;-75
2021/11/15 13:12:57;;;;;;;4.00;3.60;;;17.90;96.70;;;;;;4925253;28;20047;-75